»·PEaware :: N8833D KNEW-KTPA

N8833D :: KNEW-KTPA

FLIGHT INFORMATION

Flight Status: Arrived
Operator: Privately registered:
United States
More flights under this callsign
Pilot: Cooper L. (8467)
Aircraft: ECLIPSE 500
(EA50)
More flights by this aircraft type
Origin: KNEW Lakefront
United States
Destination: KTPA Tampa Intl
United States
More flights between these airports :: More routes between these airports
Route: DELTE SOBLE TEEZY CCORN DARBS DARBS3
File this flight plan on PilotEdge
Remarks:
Altitude:
(Current/Filed)
33,000ft
Speed:
(Current/Filed)
350kts
Departed: 05-Apr-17 12:09 PM
Arrived: 05-Apr-17 01:28 PM
Distance/Time
Traveled:
413nm/1:19
Distance/Time
To Go:
Arrived

Flight Plot

Page will automatically refresh every two minutes.

Flight plan parsing failed; only flown route is shown


Map Options




Map Legend


Flown Route
Filed Route
Departure Airport
Arrival Airport
Navaid (VOR, NDB)
Fix

Horizontal Profiles

Position Reports

Time Latitude Longitude Heading Altitude Ground
Speed
05-Apr-17 12:06 30.035708 -90.027033 231 9ft 0kts
05-Apr-17 12:07 30.035708 -90.027033 231 9ft 0kts
05-Apr-17 12:08 30.035584 -90.027489 259 9ft 11kts
05-Apr-17 12:09 30.034950 -90.029653 359 9ft 7kts
05-Apr-17 12:10 30.067551 -90.027488 25 933ft 187kts
05-Apr-17 12:11 30.055898 -89.969360 129 3745ft 239kts
05-Apr-17 12:12 30.031181 -89.899826 84 7374ft 250kts
05-Apr-17 12:13 30.054240 -89.822480 73 10380ft 265kts
05-Apr-17 12:14 30.075395 -89.740003 75 12817ft 274kts
05-Apr-17 12:15 30.095955 -89.654831 76 14931ft 281kts
05-Apr-17 12:16 30.116700 -89.567517 76 16844ft 289kts
05-Apr-17 12:17 30.138106 -89.476885 75 18622ft 298kts
05-Apr-17 12:18 30.159748 -89.384867 75 20543ft 308kts
05-Apr-17 12:19 30.181866 -89.290520 75 22147ft 319kts
05-Apr-17 12:20 30.204955 -89.191649 74 23740ft 323kts
05-Apr-17 12:21 30.228309 -89.091460 75 24995ft 324kts
05-Apr-17 12:22 30.251684 -88.990695 75 25992ft 324kts
05-Apr-17 12:23 30.275038 -88.889603 75 27071ft 331kts
05-Apr-17 12:24 30.298902 -88.785891 75 28096ft 338kts
05-Apr-17 12:25 30.295604 -88.680522 103 29205ft 330kts
05-Apr-17 12:26 30.284126 -88.574812 103 30122ft 334kts
05-Apr-17 12:27 30.272207 -88.467399 103 30987ft 339kts
05-Apr-17 12:28 30.260038 -88.358615 103 31775ft 345kts
05-Apr-17 12:29 30.247852 -88.250496 104 32424ft 349kts
05-Apr-17 12:30 30.235006 -88.138048 102 32853ft 360kts
05-Apr-17 12:31 30.221513 -88.019786 101 32859ft 381kts
05-Apr-17 12:32 30.207390 -87.897258 101 32860ft 388kts
05-Apr-17 12:33 30.192955 -87.773210 101 32862ft 393kts
05-Apr-17 12:34 30.172893 -87.649923 111 32864ft 391kts
05-Apr-17 12:35 30.142022 -87.529216 112 32865ft 394kts
05-Apr-17 12:36 30.110754 -87.407950 111 32867ft 396kts
05-Apr-17 12:37 30.079427 -87.286999 112 32853ft 396kts
05-Apr-17 12:38 30.047900 -87.165819 112 32854ft 395kts
05-Apr-17 12:39 30.016247 -87.044659 112 32856ft 394kts
05-Apr-17 12:40 29.984590 -86.923975 112 32858ft 394kts
05-Apr-17 12:41 29.952784 -86.803218 112 32860ft 394kts
05-Apr-17 12:42 29.920883 -86.682594 112 32861ft 395kts
05-Apr-17 12:43 29.888807 -86.561815 112 32867ft 396kts
05-Apr-17 12:44 29.856526 -86.440759 112 32869ft 397kts
05-Apr-17 12:45 29.824432 -86.320993 112 32857ft 397kts
05-Apr-17 12:46 29.792039 -86.200342 112 32877ft 393kts
05-Apr-17 12:47 29.759785 -86.080823 112 32912ft 391kts
05-Apr-17 12:48 29.727515 -85.961730 112 32914ft 391kts
05-Apr-17 12:49 29.695208 -85.843059 112 32898ft 391kts
05-Apr-17 12:50 29.662695 -85.723896 112 32916ft 391kts
05-Apr-17 12:51 29.630162 -85.605237 112 32919ft 391kts
05-Apr-17 12:52 29.597314 -85.485887 112 32922ft 392kts
05-Apr-17 12:53 29.564392 -85.366730 112 32949ft 392kts
05-Apr-17 12:54 29.531472 -85.248025 112 32936ft 391kts
05-Apr-17 12:55 29.498450 -85.129434 113 32938ft 390kts
05-Apr-17 12:56 29.465446 -85.011355 113 32939ft 390kts
05-Apr-17 12:57 29.432246 -84.893028 112 32941ft 390kts
05-Apr-17 12:58 29.398961 -84.774842 112 32943ft 390kts
05-Apr-17 12:59 29.365641 -84.656932 113 32944ft 390kts
05-Apr-17 13:00 29.332214 -84.539178 113 32946ft 391kts
05-Apr-17 13:01 29.287815 -84.428672 135 32949ft 375kts
05-Apr-17 13:02 29.224522 -84.335479 136 32938ft 375kts
05-Apr-17 13:03 29.160651 -84.242252 136 32935ft 373kts
05-Apr-17 13:04 29.096829 -84.149373 136 32982ft 371kts
05-Apr-17 13:05 29.033255 -84.057089 136 32991ft 371kts
05-Apr-17 13:06 28.969405 -83.964603 136 32992ft 371kts
05-Apr-17 13:07 28.907662 -83.875361 136 32994ft 372kts
05-Apr-17 13:08 28.845250 -83.785332 136 32997ft 372kts
05-Apr-17 13:09 28.780921 -83.692774 136 32982ft 374kts
05-Apr-17 13:10 28.716460 -83.600216 136 32973ft 374kts
05-Apr-17 13:11 28.651837 -83.507626 136 32974ft 375kts
05-Apr-17 13:12 28.586942 -83.414850 136 32975ft 375kts
05-Apr-17 13:13 28.522546 -83.322986 136 32964ft 375kts
05-Apr-17 13:14 28.457952 -83.231047 136 32963ft 373kts
05-Apr-17 13:15 28.393318 -83.139253 136 32968ft 372kts
05-Apr-17 13:16 28.328813 -83.047841 136 32992ft 371kts
05-Apr-17 13:17 28.264490 -82.956858 136 32993ft 371kts
05-Apr-17 13:18 28.199049 -82.867415 152 32991ft 358kts
05-Apr-17 13:19 28.115775 -82.813617 160 32995ft 349kts
05-Apr-17 13:20 28.036272 -82.764045 160 32996ft 349kts
05-Apr-17 13:21 27.951595 -82.711560 159 29880ft 350kts
05-Apr-17 13:22 27.885998 -82.635442 112 26227ft 370kts
05-Apr-17 13:23 27.933548 -82.551534 357 21872ft 340kts
05-Apr-17 13:24 28.024332 -82.557515 338 17382ft 316kts
05-Apr-17 13:25 28.107087 -82.570755 358 13138ft 327kts
05-Apr-17 13:26 28.115209 -82.534605 179 7738ft 311kts
05-Apr-17 13:27 28.038096 -82.535957 203 4609ft 231kts
05-Apr-17 13:28 28.000970 -82.527877 185 221ft 245kts
05-Apr-17 13:29 27.961057 -82.528187 228 29ft 29kts

Navigation Log

Ident Type
Flight plan parsing failed, navigation log unavailable